Phillipstown, Illinois
Current Conditions -  °F | °C
As of 5:55 AM on Thursday 27 Nov 2014 (Local Time) from KCUL Reporting Station
Broken Clouds Broken Clouds  
Wind Chill: -7°   Ceiling: 1800
Heat Index: -1°   Visibility: 7mi
Dew Point: -2°   Wind: 14mph
Humidity: 92%   Direction: 350°N
Pressure: 30.34"   Gusts: NA
Location:  38.1681°N, 88.0517°W
Report Text: KCUL 271155Z AUTO 35012KT 7SM BKN018 BKN023 M01/M02 A3034 RMK AO2 T10101021 10011 21010
Loading
Personal Weather Stations






























Interactive Weather Map New forecast layout! Learn more

10-Day Weather Forecast

Advertisements
Track Severe Weather on mobile